OCN32B EDDN-EDDW
Flight info
| Callsign | OCN32B |
|---|---|
| Flight time | 0h 45m |
| Altitude | 28000 |
| Route | SULUS1G SULUS L604 OBISI/N0441F300 L604 MASEK/N0434F290 DCT ELNAT/N0436F300 P605 NORTA Z595 NIE Z88 VERED VERED3P |
| Aircraft | A320/M-SDE3FGHIRWY/LB1 |
Departure
| Time | 2026-05-04 18:36 |
|---|---|
| Airport | Nuremberg Airport (EDDN) |
Arrival
| Time | 2026-05-04 19:22 |
|---|---|
| Airport | Bremen Airport (EDDW) |
| Time | Latitude | Longitude | Altitude | Speed | Heading |
|---|---|---|---|---|---|
| 2026-05-04 18:10 | 49.49494 | 11.08046 | 1029 ft | 0 kts | 188° |
| 2026-05-04 18:25 | 49.49506 | 11.08048 | 1029 ft | 2 kts | 188° |
| 2026-05-04 18:26 | 49.49515 | 11.08050 | 1029 ft | 0 kts | 188° |
| 2026-05-04 18:26 | 49.49530 | 11.08051 | 1030 ft | 2 kts | 167° |
| 2026-05-04 18:26 | 49.49544 | 11.08043 | 1030 ft | 2 kts | 148° |
| 2026-05-04 18:26 | 49.49555 | 11.08028 | 1029 ft | 2 kts | 127° |
| 2026-05-04 18:27 | 49.49562 | 11.08008 | 1029 ft | 2 kts | 106° |
| 2026-05-04 18:27 | 49.49564 | 11.07997 | 1029 ft | 1 kts | 95° |
| 2026-05-04 18:27 | 49.49564 | 11.07991 | 1029 ft | 0 kts | 97° |
| 2026-05-04 18:30 | 49.49563 | 11.08003 | 1029 ft | 2 kts | 97° |
| 2026-05-04 18:30 | 49.49560 | 11.08042 | 1030 ft | 5 kts | 97° |
| 2026-05-04 18:30 | 49.49554 | 11.08104 | 1030 ft | 6 kts | 99° |
| 2026-05-04 18:31 | 49.49546 | 11.08176 | 1031 ft | 6 kts | 98° |
| 2026-05-04 18:31 | 49.49539 | 11.08247 | 1032 ft | 7 kts | 98° |
| 2026-05-04 18:31 | 49.49538 | 11.08328 | 1032 ft | 8 kts | 75° |
| 2026-05-04 18:31 | 49.49588 | 11.08379 | 1033 ft | 9 kts | 26° |
| 2026-05-04 18:32 | 49.49610 | 11.08481 | 1034 ft | 11 kts | 97° |
| 2026-05-04 18:32 | 49.49600 | 11.08605 | 1035 ft | 11 kts | 98° |
| 2026-05-04 18:32 | 49.49587 | 11.08729 | 1037 ft | 11 kts | 98° |
| 2026-05-04 18:32 | 49.49576 | 11.08846 | 1039 ft | 10 kts | 99° |
| 2026-05-04 18:33 | 49.49565 | 11.08956 | 1040 ft | 10 kts | 98° |
| 2026-05-04 18:33 | 49.49554 | 11.09066 | 1042 ft | 10 kts | 98° |
| 2026-05-04 18:33 | 49.49542 | 11.09192 | 1044 ft | 12 kts | 98° |
| 2026-05-04 18:33 | 49.49536 | 11.09335 | 1046 ft | 13 kts | 72° |
| 2026-05-04 18:34 | 49.49588 | 11.09474 | 1048 ft | 16 kts | 56° |
| 2026-05-04 18:34 | 49.49672 | 11.09560 | 1049 ft | 15 kts | 343° |
| 2026-05-04 18:34 | 49.49703 | 11.09490 | 1049 ft | 0 kts | 277° |
| 2026-05-04 18:35 | 49.49714 | 11.09378 | 1047 ft | 40 kts | 279° |
| 2026-05-04 18:36 | 49.49796 | 11.08574 | 1035 ft | 109 kts | 278° |
| 2026-05-04 18:36 | 49.49946 | 11.07117 | 1040 ft | 163 kts | 279° |
| 2026-05-04 18:36 | 49.50082 | 11.05378 | 1547 ft | 167 kts | 278° |
| 2026-05-04 18:36 | 49.50246 | 11.03590 | 2186 ft | 170 kts | 280° |
| 2026-05-04 18:37 | 49.50419 | 11.01822 | 2816 ft | 171 kts | 281° |
| 2026-05-04 18:37 | 49.50602 | 10.99959 | 3208 ft | 183 kts | 281° |
| 2026-05-04 18:37 | 49.50803 | 10.97935 | 3544 ft | 200 kts | 281° |
| 2026-05-04 18:37 | 49.51051 | 10.95749 | 3883 ft | 216 kts | 288° |
| 2026-05-04 18:38 | 49.51849 | 10.93739 | 4139 ft | 236 kts | 319° |
| 2026-05-04 18:38 | 49.53337 | 10.92517 | 4512 ft | 254 kts | 348° |
| 2026-05-04 18:38 | 49.55123 | 10.92419 | 4995 ft | 268 kts | 2° |
| 2026-05-04 18:38 | 49.57024 | 10.92527 | 5673 ft | 275 kts | 1° |
| 2026-05-04 18:39 | 49.58921 | 10.92380 | 6355 ft | 281 kts | 346° |
| 2026-05-04 18:39 | 49.60782 | 10.91401 | 7127 ft | 284 kts | 336° |
| 2026-05-04 18:39 | 49.62593 | 10.90206 | 7926 ft | 287 kts | 335° |
| 2026-05-04 18:39 | 49.64427 | 10.88999 | 8706 ft | 291 kts | 335° |
| 2026-05-04 18:40 | 49.66306 | 10.87808 | 9504 ft | 294 kts | 335° |
| 2026-05-04 18:40 | 49.68185 | 10.86652 | 10250 ft | 298 kts | 336° |
| 2026-05-04 18:40 | 49.70148 | 10.85464 | 10741 ft | 312 kts | 336° |
| 2026-05-04 18:40 | 49.72234 | 10.84216 | 11095 ft | 330 kts | 336° |
| 2026-05-04 18:41 | 49.74443 | 10.82908 | 11492 ft | 345 kts | 336° |
| 2026-05-04 18:41 | 49.76688 | 10.81584 | 12139 ft | 350 kts | 337° |
| 2026-05-04 18:41 | 49.78958 | 10.80250 | 12852 ft | 353 kts | 337° |
| 2026-05-04 18:41 | 49.81229 | 10.78914 | 13528 ft | 355 kts | 337° |
| 2026-05-04 18:42 | 49.83563 | 10.77542 | 14182 ft | 359 kts | 337° |
| 2026-05-04 18:42 | 49.85893 | 10.76170 | 14817 ft | 362 kts | 337° |
| 2026-05-04 18:42 | 49.88243 | 10.74784 | 15444 ft | 364 kts | 337° |
| 2026-05-04 18:42 | 49.90611 | 10.73385 | 16043 ft | 368 kts | 337° |
| 2026-05-04 18:43 | 49.92984 | 10.71983 | 16627 ft | 371 kts | 337° |
| 2026-05-04 18:43 | 49.95425 | 10.70538 | 17206 ft | 374 kts | 337° |
| 2026-05-04 18:43 | 49.97841 | 10.69106 | 17755 ft | 377 kts | 337° |
| 2026-05-04 18:43 | 50.00290 | 10.67654 | 18298 ft | 380 kts | 337° |
| 2026-05-04 18:44 | 50.02750 | 10.66195 | 18770 ft | 383 kts | 337° |
| 2026-05-04 18:44 | 50.04412 | 10.65207 | 18924 ft | 384 kts | 337° |
| 2026-05-04 18:44 | 50.07724 | 10.63236 | 18936 ft | 384 kts | 337° |
| 2026-05-04 18:44 | 50.10236 | 10.61739 | 18936 ft | 384 kts | 337° |
| 2026-05-04 18:45 | 50.12735 | 10.60248 | 18935 ft | 384 kts | 337° |
| 2026-05-04 18:45 | 50.15176 | 10.58603 | 18935 ft | 382 kts | 329° |
| 2026-05-04 18:45 | 50.17421 | 10.56323 | 19105 ft | 384 kts | 319° |
| 2026-05-04 18:45 | 50.19373 | 10.53536 | 19699 ft | 382 kts | 312° |
| 2026-05-04 18:46 | 50.21176 | 10.50576 | 20265 ft | 383 kts | 310° |
| 2026-05-04 18:46 | 50.23008 | 10.47516 | 20766 ft | 386 kts | 311° |
| 2026-05-04 18:46 | 50.24869 | 10.44483 | 21245 ft | 389 kts | 311° |
| 2026-05-04 18:46 | 50.26756 | 10.41446 | 21657 ft | 393 kts | 311° |
| 2026-05-04 18:47 | 50.28657 | 10.38391 | 22098 ft | 397 kts | 311° |
| 2026-05-04 18:47 | 50.30584 | 10.35290 | 22560 ft | 399 kts | 311° |
| 2026-05-04 18:47 | 50.32530 | 10.32153 | 23025 ft | 401 kts | 310° |
| 2026-05-04 18:47 | 50.34460 | 10.29017 | 23459 ft | 403 kts | 309° |
| 2026-05-04 18:48 | 50.36314 | 10.25718 | 23898 ft | 404 kts | 307° |
| 2026-05-04 18:48 | 50.38162 | 10.22394 | 24334 ft | 408 kts | 309° |
| 2026-05-04 18:48 | 50.40113 | 10.19156 | 24757 ft | 411 kts | 310° |
| 2026-05-04 18:48 | 50.42330 | 10.16284 | 25107 ft | 420 kts | 328° |
| 2026-05-04 18:49 | 50.45018 | 10.14472 | 25706 ft | 421 kts | 336° |
| 2026-05-04 18:49 | 50.47733 | 10.12995 | 26388 ft | 417 kts | 337° |
| 2026-05-04 18:49 | 50.50474 | 10.11516 | 26894 ft | 416 kts | 337° |
| 2026-05-04 18:49 | 50.53212 | 10.09982 | 27276 ft | 418 kts | 336° |
| 2026-05-04 18:50 | 50.55935 | 10.08407 | 27654 ft | 420 kts | 335° |
| 2026-05-04 18:50 | 50.58661 | 10.06801 | 27936 ft | 422 kts | 335° |
| 2026-05-04 18:50 | 50.61411 | 10.05159 | 27945 ft | 423 kts | 335° |
| 2026-05-04 18:50 | 50.64161 | 10.03505 | 27947 ft | 423 kts | 335° |
| 2026-05-04 18:51 | 50.66911 | 10.01844 | 27951 ft | 423 kts | 335° |
| 2026-05-04 18:51 | 50.69630 | 10.00196 | 27950 ft | 423 kts | 335° |
| 2026-05-04 18:51 | 50.72399 | 9.98514 | 27949 ft | 423 kts | 334° |
| 2026-05-04 18:51 | 50.75091 | 9.96768 | 27950 ft | 422 kts | 333° |
| 2026-05-04 18:52 | 50.77797 | 9.94945 | 27949 ft | 423 kts | 333° |
| 2026-05-04 18:52 | 50.80486 | 9.93125 | 27949 ft | 423 kts | 332° |
| 2026-05-04 18:52 | 50.83178 | 9.91305 | 27949 ft | 423 kts | 333° |
| 2026-05-04 18:52 | 50.85897 | 9.89471 | 27949 ft | 422 kts | 333° |
| 2026-05-04 18:53 | 50.88565 | 9.87673 | 27946 ft | 422 kts | 333° |
| 2026-05-04 18:53 | 50.91290 | 9.85835 | 27947 ft | 422 kts | 333° |
| 2026-05-04 18:53 | 50.93966 | 9.84031 | 27947 ft | 422 kts | 333° |
| 2026-05-04 18:53 | 50.96673 | 9.82205 | 27950 ft | 422 kts | 333° |
| 2026-05-04 18:54 | 50.99368 | 9.80388 | 27954 ft | 422 kts | 333° |
| 2026-05-04 18:54 | 51.02046 | 9.78578 | 27952 ft | 422 kts | 333° |
| 2026-05-04 18:54 | 51.04757 | 9.76744 | 27954 ft | 422 kts | 333° |
| 2026-05-04 18:54 | 51.07456 | 9.74917 | 27954 ft | 422 kts | 333° |
| 2026-05-04 18:55 | 51.10144 | 9.73094 | 27957 ft | 422 kts | 333° |
| 2026-05-04 18:55 | 51.15535 | 9.69433 | 27950 ft | 421 kts | 332° |
| 2026-05-04 18:55 | 51.18215 | 9.67609 | 27952 ft | 421 kts | 332° |
| 2026-05-04 18:56 | 51.20905 | 9.65774 | 27949 ft | 421 kts | 333° |
| 2026-05-04 18:56 | 51.23601 | 9.63933 | 27948 ft | 421 kts | 333° |
| 2026-05-04 18:56 | 51.26281 | 9.62100 | 27958 ft | 421 kts | 332° |
| 2026-05-04 18:56 | 51.28966 | 9.60262 | 27952 ft | 421 kts | 332° |
| 2026-05-04 18:57 | 51.31650 | 9.58425 | 27951 ft | 422 kts | 333° |
| 2026-05-04 18:57 | 51.34351 | 9.56573 | 27951 ft | 422 kts | 333° |
| 2026-05-04 18:57 | 51.37022 | 9.54739 | 27949 ft | 421 kts | 333° |
| 2026-05-04 18:57 | 51.39699 | 9.52898 | 27950 ft | 421 kts | 332° |
| 2026-05-04 18:58 | 51.42413 | 9.51028 | 27954 ft | 421 kts | 333° |
| 2026-05-04 18:58 | 51.45081 | 9.49188 | 27950 ft | 421 kts | 332° |
| 2026-05-04 18:58 | 51.47752 | 9.47344 | 27949 ft | 421 kts | 333° |
| 2026-05-04 18:58 | 51.50442 | 9.45482 | 27947 ft | 421 kts | 333° |
| 2026-05-04 18:59 | 51.53133 | 9.43620 | 27950 ft | 421 kts | 333° |
| 2026-05-04 18:59 | 51.55806 | 9.41767 | 27946 ft | 421 kts | 333° |
| 2026-05-04 18:59 | 51.58474 | 9.39917 | 27948 ft | 421 kts | 333° |
| 2026-05-04 18:59 | 51.61168 | 9.38043 | 27946 ft | 421 kts | 333° |
| 2026-05-04 19:00 | 51.63838 | 9.36186 | 27945 ft | 420 kts | 333° |
| 2026-05-04 19:00 | 51.66519 | 9.34317 | 27945 ft | 421 kts | 332° |
| 2026-05-04 19:00 | 51.69212 | 9.32439 | 27943 ft | 421 kts | 332° |
| 2026-05-04 19:00 | 51.71906 | 9.30557 | 27940 ft | 420 kts | 332° |
| 2026-05-04 19:01 | 51.74564 | 9.28697 | 27800 ft | 421 kts | 332° |
| 2026-05-04 19:01 | 51.77241 | 9.26821 | 27535 ft | 419 kts | 332° |
| 2026-05-04 19:01 | 51.79900 | 9.24958 | 27266 ft | 417 kts | 332° |
| 2026-05-04 19:01 | 51.82531 | 9.23111 | 26870 ft | 414 kts | 332° |
| 2026-05-04 19:02 | 51.85183 | 9.21245 | 26467 ft | 412 kts | 332° |
| 2026-05-04 19:02 | 51.87794 | 9.19407 | 26068 ft | 412 kts | 332° |
| 2026-05-04 19:02 | 51.90433 | 9.17544 | 25663 ft | 413 kts | 332° |
| 2026-05-04 19:02 | 51.93064 | 9.15685 | 25123 ft | 415 kts | 332° |
| 2026-05-04 19:03 | 51.95702 | 9.13819 | 24458 ft | 415 kts | 333° |
| 2026-05-04 19:03 | 51.98313 | 9.11970 | 23840 ft | 416 kts | 333° |
| 2026-05-04 19:03 | 52.00965 | 9.10093 | 23306 ft | 414 kts | 333° |
| 2026-05-04 19:03 | 52.03609 | 9.08218 | 22774 ft | 410 kts | 333° |
| 2026-05-04 19:04 | 52.06182 | 9.06391 | 22266 ft | 407 kts | 333° |
| 2026-05-04 19:04 | 52.08773 | 9.04548 | 21737 ft | 404 kts | 333° |
| 2026-05-04 19:04 | 52.11335 | 9.02724 | 21226 ft | 401 kts | 333° |
| 2026-05-04 19:04 | 52.13866 | 9.00918 | 20705 ft | 398 kts | 333° |
| 2026-05-04 19:05 | 52.16404 | 8.99107 | 20187 ft | 395 kts | 333° |
| 2026-05-04 19:05 | 52.18895 | 8.97326 | 19672 ft | 392 kts | 334° |
| 2026-05-04 19:05 | 52.21390 | 8.95538 | 19109 ft | 390 kts | 334° |
| 2026-05-04 19:05 | 52.23843 | 8.93779 | 18582 ft | 388 kts | 334° |
| 2026-05-04 19:06 | 52.26317 | 8.92005 | 18014 ft | 386 kts | 334° |
| 2026-05-04 19:06 | 52.28722 | 8.90278 | 17485 ft | 380 kts | 334° |
| 2026-05-04 19:06 | 52.31139 | 8.88543 | 16942 ft | 375 kts | 334° |
| 2026-05-04 19:06 | 52.33483 | 8.86858 | 16390 ft | 372 kts | 334° |
| 2026-05-04 19:07 | 52.35845 | 8.85155 | 15829 ft | 368 kts | 334° |
| 2026-05-04 19:07 | 52.38145 | 8.83496 | 15300 ft | 364 kts | 334° |
| 2026-05-04 19:07 | 52.40459 | 8.81822 | 14771 ft | 360 kts | 334° |
| 2026-05-04 19:07 | 52.42738 | 8.80172 | 14246 ft | 359 kts | 334° |
| 2026-05-04 19:08 | 52.44994 | 8.78537 | 13713 ft | 357 kts | 334° |
| 2026-05-04 19:08 | 52.47262 | 8.76893 | 13186 ft | 356 kts | 334° |
| 2026-05-04 19:08 | 52.49508 | 8.75262 | 12656 ft | 352 kts | 334° |
| 2026-05-04 19:08 | 52.51720 | 8.73657 | 12135 ft | 344 kts | 334° |
| 2026-05-04 19:09 | 52.53878 | 8.72089 | 11594 ft | 340 kts | 334° |
| 2026-05-04 19:09 | 52.55974 | 8.70563 | 11264 ft | 324 kts | 334° |
| 2026-05-04 19:09 | 52.57997 | 8.69092 | 11029 ft | 307 kts | 334° |
| 2026-05-04 19:09 | 52.59872 | 8.67727 | 10959 ft | 294 kts | 334° |
| 2026-05-04 19:10 | 52.61740 | 8.66363 | 10961 ft | 294 kts | 334° |
| 2026-05-04 19:10 | 52.63605 | 8.64998 | 10966 ft | 294 kts | 334° |
| 2026-05-04 19:10 | 52.65466 | 8.63635 | 10946 ft | 292 kts | 334° |
| 2026-05-04 19:10 | 52.67301 | 8.62289 | 10678 ft | 288 kts | 334° |
| 2026-05-04 19:11 | 52.71278 | 8.59369 | 9804 ft | 287 kts | 334° |
| 2026-05-04 19:11 | 52.73081 | 8.58044 | 9444 ft | 286 kts | 334° |
| 2026-05-04 19:11 | 52.74904 | 8.56704 | 9074 ft | 284 kts | 334° |
| 2026-05-04 19:12 | 52.76676 | 8.55399 | 8711 ft | 283 kts | 334° |
| 2026-05-04 19:12 | 52.80263 | 8.52756 | 7973 ft | 280 kts | 334° |
| 2026-05-04 19:12 | 52.82010 | 8.51467 | 7610 ft | 279 kts | 334° |
| 2026-05-04 19:13 | 52.83770 | 8.50168 | 7244 ft | 277 kts | 335° |
| 2026-05-04 19:13 | 52.85542 | 8.48857 | 6887 ft | 276 kts | 335° |
| 2026-05-04 19:13 | 52.87274 | 8.47576 | 6533 ft | 274 kts | 335° |
| 2026-05-04 19:13 | 52.89008 | 8.46290 | 6177 ft | 273 kts | 335° |
| 2026-05-04 19:14 | 52.90730 | 8.45004 | 5831 ft | 271 kts | 335° |
| 2026-05-04 19:14 | 52.92435 | 8.43715 | 5480 ft | 270 kts | 335° |
| 2026-05-04 19:14 | 52.94128 | 8.42417 | 5126 ft | 269 kts | 335° |
| 2026-05-04 19:14 | 52.95829 | 8.41097 | 4766 ft | 267 kts | 335° |
| 2026-05-04 19:15 | 52.97498 | 8.39774 | 4417 ft | 266 kts | 335° |
| 2026-05-04 19:15 | 52.99144 | 8.38455 | 4073 ft | 265 kts | 335° |
| 2026-05-04 19:15 | 53.00806 | 8.37249 | 3810 ft | 261 kts | 347° |
| 2026-05-04 19:15 | 53.02594 | 8.37209 | 3550 ft | 259 kts | 17° |
| 2026-05-04 19:16 | 53.04154 | 8.38619 | 3293 ft | 255 kts | 46° |
| 2026-05-04 19:16 | 53.05064 | 8.41057 | 3041 ft | 244 kts | 76° |
| 2026-05-04 19:16 | 53.05092 | 8.43708 | 2971 ft | 227 kts | 101° |
| 2026-05-04 19:16 | 53.04700 | 8.46159 | 2964 ft | 212 kts | 106° |
| 2026-05-04 19:17 | 53.04303 | 8.48452 | 2976 ft | 195 kts | 101° |
| 2026-05-04 19:17 | 53.04118 | 8.50530 | 3047 ft | 175 kts | 93° |
| 2026-05-04 19:17 | 53.04095 | 8.52479 | 2938 ft | 162 kts | 87° |
| 2026-05-04 19:17 | 53.04144 | 8.54262 | 2725 ft | 151 kts | 85° |
| 2026-05-04 19:18 | 53.04197 | 8.55967 | 2545 ft | 147 kts | 85° |
| 2026-05-04 19:18 | 53.04241 | 8.57645 | 2354 ft | 143 kts | 85° |
| 2026-05-04 19:18 | 53.04276 | 8.59259 | 2156 ft | 139 kts | 86° |
| 2026-05-04 19:18 | 53.04308 | 8.60863 | 1965 ft | 138 kts | 85° |
| 2026-05-04 19:19 | 53.04339 | 8.62448 | 1772 ft | 138 kts | 85° |
| 2026-05-04 19:19 | 53.04371 | 8.64040 | 1589 ft | 138 kts | 85° |
| 2026-05-04 19:19 | 53.04402 | 8.65624 | 1405 ft | 137 kts | 85° |
| 2026-05-04 19:19 | 53.04435 | 8.67215 | 1223 ft | 137 kts | 85° |
| 2026-05-04 19:20 | 53.04468 | 8.68786 | 1039 ft | 136 kts | 85° |
| 2026-05-04 19:20 | 53.04502 | 8.70357 | 844 ft | 135 kts | 86° |
| 2026-05-04 19:20 | 53.04524 | 8.71903 | 643 ft | 133 kts | 86° |
| 2026-05-04 19:20 | 53.04555 | 8.73399 | 471 ft | 129 kts | 84° |
| 2026-05-04 19:21 | 53.04588 | 8.74877 | 295 ft | 125 kts | 85° |
| 2026-05-04 19:21 | 53.04627 | 8.76313 | 150 ft | 123 kts | 85° |
| 2026-05-04 19:21 | 53.04663 | 8.77755 | 30 ft | 126 kts | 85° |
| 2026-05-04 19:21 | 53.04704 | 8.78945 | 14 ft | 77 kts | 88° |
| 2026-05-04 19:22 | 53.04713 | 8.79684 | 16 ft | 38 kts | 91° |
| 2026-05-04 19:22 | 53.04762 | 8.79957 | 16 ft | 21 kts | 25° |
| 2026-05-04 19:22 | 53.04841 | 8.79945 | 16 ft | 0 kts | 323° |
| 2026-05-04 19:23 | 53.04844 | 8.79941 | 16 ft | 2 kts | 323° |
| 2026-05-04 19:23 | 53.04870 | 8.79897 | 16 ft | 7 kts | 301° |
| 2026-05-04 19:23 | 53.04876 | 8.79801 | 16 ft | 9 kts | 267° |
| 2026-05-04 19:23 | 53.04872 | 8.79683 | 16 ft | 10 kts | 267° |
| 2026-05-04 19:24 | 53.04869 | 8.79546 | 16 ft | 12 kts | 268° |
| 2026-05-04 19:24 | 53.04866 | 8.79390 | 16 ft | 14 kts | 269° |
| 2026-05-04 19:24 | 53.04862 | 8.79219 | 15 ft | 15 kts | 268° |
| 2026-05-04 19:24 | 53.04858 | 8.79037 | 15 ft | 16 kts | 268° |
| 2026-05-04 19:25 | 53.04853 | 8.78840 | 14 ft | 17 kts | 268° |
| 2026-05-04 19:25 | 53.04892 | 8.78664 | 14 ft | 17 kts | 338° |
| 2026-05-04 19:25 | 53.05000 | 8.78617 | 14 ft | 14 kts | 322° |
| 2026-05-04 19:25 | 53.05074 | 8.78513 | 14 ft | 13 kts | 320° |
| 2026-05-04 19:26 | 53.05119 | 8.78454 | 13 ft | 6 kts | 353° |
| 2026-05-04 19:26 | 53.05132 | 8.78466 | 13 ft | 2 kts | 46° |
| 2026-05-04 19:26 | 53.05146 | 8.78490 | 14 ft | 3 kts | 48° |
| 2026-05-04 19:26 | 53.05161 | 8.78519 | 14 ft | 2 kts | 48° |
| 2026-05-04 19:27 | 53.05170 | 8.78535 | 14 ft | 0 kts | 49° |